Time;durP1;ratioP1;P1;durP2;ratioP2;P2;SDS_P1;SDS_P2;PMS_P1;PMS_P2;Temp;Humidity;BMP_temperature;BMP_pressure;BME280_temperature;BME280_humidity;BME280_pressure;Samples;Min_cycle;Max_cycle;Signal;HPM_P1;HPM_P2
2022/01/09 00:01:09;;;;;;;;;;;6.40;1.00;;;;;;5053744;28;19962;-79
2022/01/09 00:03:34;;;;;;;;;;;6.40;99.90;;;;;;5055433;28;19973;-79
2022/01/09 00:06:00;;;;;;;;;;;6.40;99.90;;;;;;5056797;28;19908;-79
2022/01/09 00:08:25;;;;;;;;;;;6.40;99.90;;;;;;5034105;28;19913;-79
2022/01/09 00:10:52;;;;;;;;;;;6.30;99.90;;;;;;5054894;28;20069;-79
2022/01/09 00:13:17;;;;;;;;;;;6.30;1.00;;;;;;5065868;28;19912;-80
2022/01/09 00:15:43;;;;;;;;;;;6.20;1.00;;;;;;5049757;28;20095;-79
2022/01/09 00:18:08;;;;;;;;;;;6.20;1.00;;;;;;5041385;28;19952;-79
2022/01/09 00:20:34;;;;;;;;;;;6.10;1.00;;;;;;5042510;28;19913;-79
2022/01/09 00:23:00;;;;;;;;;;;6.10;1.00;;;;;;5056440;28;19915;-79
2022/01/09 00:25:25;;;;;;;;;;;6.10;1.00;;;;;;5051492;28;19913;-80
2022/01/09 00:27:51;;;;;;;;;;;6.10;1.00;;;;;;5054625;28;19920;-79
2022/01/09 00:30:19;;;;;;;;;;;6.10;1.00;;;;;;5053919;28;19967;-80
2022/01/09 00:32:44;;;;;;;;;;;6.10;1.00;;;;;;5053538;28;20396;-79
2022/01/09 00:35:10;;;;;;;;;;;6.10;1.00;;;;;;5053866;28;19917;-79
2022/01/09 00:37:36;;;;;;;;;;;6.10;1.00;;;;;;5054813;28;19920;-79
2022/01/09 00:40:03;;;;;;;;;;;6.10;1.00;;;;;;5052693;28;20297;-78
2022/01/09 00:42:28;;;;;;;;;;;6.10;1.00;;;;;;5051611;28;19913;-80
2022/01/09 00:44:54;;;;;;;;;;;6.10;1.00;;;;;;5051511;28;20014;-80
2022/01/09 00:47:19;;;;;;;;;;;6.10;1.00;;;;;;5054680;28;19966;-79
2022/01/09 00:49:44;;;;;;;;;;;6.10;1.00;;;;;;5036018;28;20387;-79
2022/01/09 00:52:10;;;;;;;;;;;6.10;1.00;;;;;;5054804;28;19913;-79
2022/01/09 00:54:35;;;;;;;;;;;6.20;1.00;;;;;;5053468;28;19921;-78
2022/01/09 00:57:01;;;;;;;;;;;6.20;1.00;;;;;;5053243;28;19917;-80
2022/01/09 00:59:27;;;;;;;;;;;6.30;1.00;;;;;;5032764;28;20440;-79
2022/01/09 01:01:52;;;;;;;;;;;6.30;1.00;;;;;;5052491;28;19921;-79
2022/01/09 01:04:17;;;;;;;;;;;6.30;1.00;;;;;;5053128;28;20039;-80
2022/01/09 01:06:43;;;;;;;;;;;6.40;1.00;;;;;;5035333;28;19920;-79
2022/01/09 01:09:09;;;;;;;;;;;6.40;1.00;;;;;;5039032;28;19917;-78
2022/01/09 01:11:34;;;;;;;;;;;6.40;1.00;;;;;;5040622;28;20312;-80
2022/01/09 01:14:00;;;;;;;;;;;6.40;1.00;;;;;;5037622;28;19913;-80
2022/01/09 01:16:25;;;;;;;;;;;6.40;1.00;;;;;;5057342;28;19986;-79
2022/01/09 01:18:54;;;;;;;;;;;6.40;1.00;;;;;;5058452;28;20305;-77
2022/01/09 01:21:19;;;;;;;;;;;6.50;1.00;;;;;;5050006;28;19913;-79
2022/01/09 01:23:45;;;;;;;;;;;6.50;1.00;;;;;;5064040;28;20004;-79
2022/01/09 01:26:10;;;;;;;;;;;6.50;1.00;;;;;;5057712;28;19912;-79
2022/01/09 01:28:35;;;;;;;;;;;6.50;1.00;;;;;;5059188;28;19909;-79
2022/01/09 01:31:01;;;;;;;;;;;6.50;1.00;;;;;;5057305;28;19917;-79
2022/01/09 01:33:26;;;;;;;;;;;6.50;1.00;;;;;;5056350;28;20014;-79
2022/01/09 01:35:52;;;;;;;;;;;6.40;1.00;;;;;;5039426;28;19920;-78
2022/01/09 01:38:17;;;;;;;;;;;6.40;1.00;;;;;;5056436;28;19921;-78
2022/01/09 01:40:43;;;;;;;;;;;6.30;1.00;;;;;;5055389;28;20470;-78
2022/01/09 01:43:09;;;;;;;;;;;6.20;1.00;;;;;;5041770;28;19924;-78
2022/01/09 01:45:34;;;;;;;;;;;6.10;1.00;;;;;;5043967;28;19913;-79
2022/01/09 01:48:06;;;;;;;;;;;6.00;1.00;;;;;;5060305;28;19913;-79
2022/01/09 01:50:36;;;;;;;;;;;6.00;1.00;;;;;;5041380;28;19959;-79
2022/01/09 01:53:02;;;;;;;;;;;5.90;1.00;;;;;;5059066;28;19917;-78
2022/01/09 01:55:29;;;;;;;;;;;5.80;1.00;;;;;;5042969;28;19913;-79
2022/01/09 01:57:54;;;;;;;;;;;5.70;1.00;;;;;;5059584;28;19920;-78
2022/01/09 02:00:20;;;;;;;;;;;5.70;1.00;;;;;;5041865;28;19913;-77
2022/01/09 02:02:46;;;;;;;;;;;5.60;1.00;;;;;;5057159;28;19912;-78
2022/01/09 02:05:12;;;;;;;;;;;5.60;1.00;;;;;;5040044;28;20364;-78
2022/01/09 02:07:38;;;;;;;;;;;5.60;1.00;;;;;;5055843;28;20295;-79
2022/01/09 02:10:07;;;;;;;;;;;5.50;1.00;;;;;;5057628;28;19936;-78
2022/01/09 02:12:35;;;;;;;;;;;5.50;1.00;;;;;;5039074;28;19952;-78
2022/01/09 02:15:01;;;;;;;;;;;5.50;1.00;;;;;;5056381;28;19913;-78
2022/01/09 02:17:26;;;;;;;;;;;5.50;1.00;;;;;;5058474;28;19954;-78
2022/01/09 02:19:52;;;;;;;;;;;5.50;1.00;;;;;;5039348;28;19917;-79
2022/01/09 02:22:17;;;;;;;;;;;5.50;1.00;;;;;;5056978;28;19917;-78
2022/01/09 02:24:44;;;;;;;;;;;5.50;1.00;;;;;;5039213;28;19995;-78
2022/01/09 02:27:09;;;;;;;;;;;5.50;1.00;;;;;;5057659;28;20361;-78
2022/01/09 02:29:34;;;;;;;;;;;5.50;1.00;;;;;;5037819;28;19912;-78
2022/01/09 02:32:00;;;;;;;;;;;5.50;1.00;;;;;;5039124;28;19908;-77
2022/01/09 02:34:25;;;;;;;;;;;5.60;1.00;;;;;;5039307;28;19912;-77
2022/01/09 02:36:51;;;;;;;;;;;5.60;1.00;;;;;;5062784;28;19920;-79
2022/01/09 02:39:16;;;;;;;;;;;5.60;1.00;;;;;;5056336;28;19913;-78
2022/01/09 02:41:42;;;;;;;;;;;5.60;1.00;;;;;;5039701;28;19913;-78
2022/01/09 02:44:08;;;;;;;;;;;5.60;1.00;;;;;;5055464;28;20494;-78
2022/01/09 02:49:30;;;;;;;;;;;5.60;1.00;;;;;;5046296;28;19978;-78
2022/01/09 02:51:57;;;;;;;;;;;5.70;1.00;;;;;;5056407;28;19966;-78
2022/01/09 02:57:07;;;;;;;;;;;5.70;1.00;;;;;;5057174;28;19963;-78
2022/01/09 02:59:33;;;;;;;;;;;5.60;1.00;;;;;;5039615;28;20380;-78
2022/01/09 03:01:58;;;;;;;;;;;5.60;1.00;;;;;;5057530;28;19908;-78
2022/01/09 03:04:24;;;;;;;;;;;5.60;1.00;;;;;;5056463;28;19913;-78
2022/01/09 03:06:49;;;;;;;;;;;5.60;1.00;;;;;;5039464;28;19917;-78
2022/01/09 03:09:15;;;;;;;;;;;5.60;1.00;;;;;;5040378;28;19956;-78
2022/01/09 03:11:40;;;;;;;;;;;5.60;1.00;;;;;;5040035;28;19948;-79
2022/01/09 03:14:09;;;;;;;;;;;5.60;1.00;;;;;;5038428;28;19967;-79
2022/01/09 03:16:35;;;;;;;;;;;5.60;1.00;;;;;;5039404;28;19913;-79
2022/01/09 03:19:00;;;;;;;;;;;5.70;1.00;;;;;;5058694;28;19917;-79
2022/01/09 03:21:25;;;;;;;;;;;5.60;1.00;;;;;;5057512;28;20381;-78
2022/01/09 03:23:51;;;;;;;;;;;5.70;1.00;;;;;;5038543;28;19917;-78
2022/01/09 03:26:16;;;;;;;;;;;5.70;1.00;;;;;;5057212;28;19920;-78
2022/01/09 03:28:42;;;;;;;;;;;5.70;1.00;;;;;;5057081;28;19938;-78
2022/01/09 03:31:07;;;;;;;;;;;5.70;1.00;;;;;;5059406;28;20316;-78
2022/01/09 03:33:33;;;;;;;;;;;5.70;1.00;;;;;;5066223;28;19909;-78
2022/01/09 03:35:58;;;;;;;;;;;5.80;1.00;;;;;;5040485;28;19963;-79
2022/01/09 03:38:23;;;;;;;;;;;5.80;1.00;;;;;;5057205;28;19917;-78
2022/01/09 03:40:49;;;;;;;;;;;5.80;1.00;;;;;;5056150;28;19913;-79
2022/01/09 03:43:14;;;;;;;;;;;5.90;1.00;;;;;;5056930;28;19980;-79
2022/01/09 03:45:40;;;;;;;;;;;6.00;1.00;;;;;;5041464;28;20293;-79
2022/01/09 03:48:05;;;;;;;;;;;6.00;1.00;;;;;;5057310;28;19913;-79
2022/01/09 03:50:32;;;;;;;;;;;6.00;1.00;;;;;;5056930;28;19923;-78
2022/01/09 03:52:58;;;;;;;;;;;6.00;1.00;;;;;;5040054;28;19936;-80
2022/01/09 03:55:23;;;;;;;;;;;6.00;1.00;;;;;;5058061;28;19913;-79
2022/01/09 03:57:49;;;;;;;;;;;6.00;1.00;;;;;;5056681;28;19912;-79
2022/01/09 04:00:19;;;;;;;;;;;6.10;1.00;;;;;;5056618;28;19939;-79
2022/01/09 04:02:45;;;;;;;;;;;6.10;1.00;;;;;;5056770;28;20008;-79
2022/01/09 04:05:11;;;;;;;;;;;6.10;1.00;;;;;;5038862;28;20007;-80
2022/01/09 04:07:36;;;;;;;;;;;6.20;1.00;;;;;;5054790;28;19940;-79
2022/01/09 04:10:03;;;;;;;;;;;6.20;1.00;;;;;;5054789;28;19913;-79
2022/01/09 04:12:37;;;;;;;;;;;6.20;1.00;;;;;;5038431;28;19961;-79
2022/01/09 04:15:06;;;;;;;;;;;6.20;1.00;;;;;;5037953;28;20218;-79
2022/01/09 04:17:42;;;;;;;;;;;6.20;1.00;;;;;;5056597;28;19923;-79
2022/01/09 04:20:08;;;;;;;;;;;6.20;99.90;;;;;;5040489;28;19917;-79
2022/01/09 04:22:34;;;;;;;;;;;6.20;99.90;;;;;;5039673;28;20036;-80
2022/01/09 04:24:59;;;;;;;;;;;6.20;99.90;;;;;;5039390;28;19959;-79
2022/01/09 04:27:25;;;;;;;;;;;6.20;99.90;;;;;;5038864;28;19929;-79
2022/01/09 04:29:50;;;;;;;;;;;6.20;99.90;;;;;;5038347;28;20173;-79
2022/01/09 04:32:16;;;;;;;;;;;6.20;99.90;;;;;;5056637;28;19912;-79
2022/01/09 04:34:41;;;;;;;;;;;6.20;99.90;;;;;;5056903;28;19917;-79
2022/01/09 04:37:07;;;;;;;;;;;6.20;99.90;;;;;;5038901;28;19917;-79
2022/01/09 04:39:32;;;;;;;;;;;6.20;99.90;;;;;;5037887;28;19987;-80
2022/01/09 04:41:58;;;;;;;;;;;6.20;99.90;;;;;;5054714;28;19909;-77
2022/01/09 04:44:24;;;;;;;;;;;6.20;99.90;;;;;;5052515;28;19924;-77
2022/01/09 04:47:00;;;;;;;;;;;6.20;99.90;;;;;;5054189;28;19917;-77
2022/01/09 04:49:32;;;;;;;;;;;6.20;99.90;;;;;;5046977;28;19995;-77
2022/01/09 04:51:58;;;;;;;;;;;6.20;99.90;;;;;;5037046;28;19920;-77
2022/01/09 04:54:23;;;;;;;;;;;6.20;99.90;;;;;;5054254;28;19912;-77
2022/01/09 04:56:49;;;;;;;;;;;6.20;99.90;;;;;;5054730;28;19913;-78
2022/01/09 04:59:14;;;;;;;;;;;6.20;99.90;;;;;;5038153;28;19917;-79
2022/01/09 05:01:40;;;;;;;;;;;6.20;99.90;;;;;;5049920;28;19913;-79
2022/01/09 05:04:05;;;;;;;;;;;6.20;99.90;;;;;;5038140;28;19920;-78
2022/01/09 05:06:30;;;;;;;;;;;6.20;99.90;;;;;;5056374;28;19916;-79
2022/01/09 05:08:56;;;;;;;;;;;6.20;99.90;;;;;;5053455;28;19920;-79
2022/01/09 05:11:21;;;;;;;;;;;6.20;99.90;;;;;;5038119;28;19924;-77
2022/01/09 05:13:47;;;;;;;;;;;6.20;99.90;;;;;;5054147;28;19913;-79
2022/01/09 05:16:12;;;;;;;;;;;6.20;99.90;;;;;;5055844;28;19925;-79
2022/01/09 05:21:33;;;;;;;;;;;6.10;99.90;;;;;;5032535;28;19947;-78
2022/01/09 05:23:58;;;;;;;;;;;6.10;99.90;;;;;;5055764;28;19913;-79
2022/01/09 05:26:24;;;;;;;;;;;6.10;99.90;;;;;;5056442;28;20419;-79
2022/01/09 05:28:49;;;;;;;;;;;6.10;93.00;;;;;;5037155;28;20388;-79
2022/01/09 05:31:15;;;;;;;;;;;6.10;99.90;;;;;;5054172;28;20011;-78
2022/01/09 05:33:40;;;;;;;;;;;6.10;39.90;;;;;;5038229;28;19917;-78
2022/01/09 05:36:06;;;;;;;;;;;6.10;7.50;;;;;;5054976;28;20300;-78
2022/01/09 05:38:32;;;;;;;;;;;6.10;1.00;;;;;;5037515;28;19971;-77
2022/01/09 05:40:57;;;;;;;;;;;6.10;1.00;;;;;;5055887;28;19912;-80
2022/01/09 05:43:23;;;;;;;;;;;6.00;1.00;;;;;;5035493;28;19916;-77
2022/01/09 05:45:48;;;;;;;;;;;6.00;1.00;;;;;;5053166;28;19935;-78
2022/01/09 05:48:14;;;;;;;;;;;6.00;1.00;;;;;;5055109;28;20270;-78
2022/01/09 05:50:39;;;;;;;;;;;6.00;1.00;;;;;;5055391;28;19909;-78
2022/01/09 05:53:05;;;;;;;;;;;6.00;1.00;;;;;;5035717;28;20366;-78
2022/01/09 05:55:30;;;;;;;;;;;5.90;1.00;;;;;;5040537;28;19999;-79
2022/01/09 05:57:56;;;;;;;;;;;6.00;1.00;;;;;;5039647;28;19908;-79
2022/01/09 06:00:22;;;;;;;;;;;6.00;1.00;;;;;;5057706;28;20419;-78
2022/01/09 06:02:47;;;;;;;;;;;5.90;1.00;;;;;;5057130;28;19916;-78
2022/01/09 06:05:13;;;;;;;;;;;6.00;1.00;;;;;;5040482;28;19913;-78
2022/01/09 06:07:39;;;;;;;;;;;5.90;1.00;;;;;;5057590;28;20348;-78
2022/01/09 06:10:05;;;;;;;;;;;5.90;1.00;;;;;;5039693;28;19928;-78
2022/01/09 06:12:31;;;;;;;;;;;6.00;1.00;;;;;;5057344;28;19912;-78
2022/01/09 06:14:56;;;;;;;;;;;6.00;1.00;;;;;;5040099;28;19913;-78
2022/01/09 06:17:22;;;;;;;;;;;6.00;1.00;;;;;;5059024;28;19913;-79
2022/01/09 06:19:47;;;;;;;;;;;5.90;1.00;;;;;;5040030;28;19913;-78
2022/01/09 06:22:18;;;;;;;;;;;6.00;99.90;;;;;;5041040;28;19976;-79
2022/01/09 06:24:43;;;;;;;;;;;6.00;99.90;;;;;;5037669;28;19952;-79
2022/01/09 06:27:09;;;;;;;;;;;6.00;99.90;;;;;;5057139;28;19913;-79
2022/01/09 06:29:34;;;;;;;;;;;6.00;99.90;;;;;;5056733;28;19908;-79
2022/01/09 06:32:00;;;;;;;;;;;6.00;99.90;;;;;;5038833;28;19912;-78
2022/01/09 06:34:25;;;;;;;;;;;6.00;99.90;;;;;;5039903;28;19909;-80
2022/01/09 06:36:51;;;;;;;;;;;6.00;99.90;;;;;;5057064;28;20356;-78
2022/01/09 06:39:16;;;;;;;;;;;6.00;72.20;;;;;;5058530;28;19920;-79
2022/01/09 06:41:41;;;;;;;;;;;5.90;1.00;;;;;;5037590;28;19916;-79
2022/01/09 06:44:07;;;;;;;;;;;5.90;4.60;;;;;;5058949;28;19920;-79
2022/01/09 06:46:32;;;;;;;;;;;5.90;1.00;;;;;;5039737;28;19925;-78
2022/01/09 06:48:58;;;;;;;;;;;5.90;17.10;;;;;;5063477;28;19965;-79
2022/01/09 06:51:23;;;;;;;;;;;5.90;99.90;;;;;;5058593;28;19920;-78
2022/01/09 06:53:49;;;;;;;;;;;5.90;99.90;;;;;;5039378;28;19916;-78
2022/01/09 06:56:14;;;;;;;;;;;5.80;99.90;;;;;;5057919;28;19913;-78
2022/01/09 06:58:40;;;;;;;;;;;5.80;99.90;;;;;;5040178;28;19913;-78
2022/01/09 07:01:05;;;;;;;;;;;5.70;1.00;;;;;;5057770;28;19913;-78
2022/01/09 07:03:30;;;;;;;;;;;5.70;1.00;;;;;;5037737;28;20447;-79
2022/01/09 07:05:56;;;;;;;;;;;5.70;1.00;;;;;;5039199;28;19920;-78
2022/01/09 07:08:21;;;;;;;;;;;5.60;1.00;;;;;;5058163;28;19952;-79
2022/01/09 07:10:47;;;;;;;;;;;5.70;62.80;;;;;;5042730;28;19913;-80
2022/01/09 07:13:13;;;;;;;;;;;5.80;12.10;;;;;;5058074;28;20043;-80
2022/01/09 07:15:39;;;;;;;;;;;5.90;1.00;;;;;;5060945;28;20296;-79
2022/01/09 07:18:04;;;;;;;;;;;5.90;1.00;;;;;;5043367;28;20008;-79
2022/01/09 07:20:30;;;;;;;;;;;5.90;1.00;;;;;;5039419;28;20373;-81
2022/01/09 07:22:55;;;;;;;;;;;6.00;1.00;;;;;;5059933;28;19913;-80
2022/01/09 07:25:21;;;;;;;;;;;5.90;1.00;;;;;;5059137;28;20292;-81
2022/01/09 07:27:47;;;;;;;;;;;5.90;1.00;;;;;;5041855;28;19913;-80
2022/01/09 07:30:12;;;;;;;;;;;5.80;1.00;;;;;;5059992;28;19943;-80
2022/01/09 07:32:40;;;;;;;;;;;5.80;1.00;;;;;;5043680;28;19908;-80
2022/01/09 07:35:05;;;;;;;;;;;5.80;1.00;;;;;;5059582;28;19928;-80
2022/01/09 07:37:31;;;;;;;;;;;5.70;1.00;;;;;;5057219;28;19917;-80
2022/01/09 07:39:57;;;;;;;;;;;5.70;1.00;;;;;;5061043;28;19912;-80
2022/01/09 07:42:23;;;;;;;;;;;5.70;99.90;;;;;;5042591;28;19913;-80
2022/01/09 07:44:48;;;;;;;;;;;5.70;99.90;;;;;;5042894;28;20285;-80
2022/01/09 07:47:13;;;;;;;;;;;5.60;99.90;;;;;;5061659;28;19913;-80
2022/01/09 07:49:39;;;;;;;;;;;5.60;99.90;;;;;;5060573;28;19913;-80
2022/01/09 07:52:04;;;;;;;;;;;5.60;51.30;;;;;;5043300;28;19919;-80
2022/01/09 07:54:30;;;;;;;;;;;5.60;13.60;;;;;;5059720;28;19913;-80
2022/01/09 07:56:55;;;;;;;;;;;5.60;29.30;;;;;;5061791;28;19942;-80
2022/01/09 07:59:21;;;;;;;;;;;5.60;40.80;;;;;;5059719;28;19921;-80
2022/01/09 08:01:46;;;;;;;;;;;5.60;16.30;;;;;;5043831;28;20004;-81
2022/01/09 08:04:12;;;;;;;;;;;5.60;41.50;;;;;;5042920;28;19920;-80
2022/01/09 08:06:39;;;;;;;;;;;5.60;31.50;;;;;;5038212;28;20004;-81
2022/01/09 08:09:04;;;;;;;;;;;5.60;99.90;;;;;;5059573;28;19917;-80
2022/01/09 08:11:30;;;;;;;;;;;5.60;95.40;;;;;;5059301;28;19913;-80
2022/01/09 08:13:55;;;;;;;;;;;5.60;13.70;;;;;;5059821;28;20284;-80
2022/01/09 08:16:21;;;;;;;;;;;5.70;1.00;;;;;;5060186;28;19923;-80
2022/01/09 08:18:46;;;;;;;;;;;5.70;1.00;;;;;;5061206;28;19971;-80
2022/01/09 08:21:12;;;;;;;;;;;5.80;1.00;;;;;;5061566;28;19935;-80
2022/01/09 08:23:37;;;;;;;;;;;5.80;1.00;;;;;;5060801;28;19916;-80
2022/01/09 08:26:03;;;;;;;;;;;5.90;1.00;;;;;;5059761;28;19920;-80
2022/01/09 08:28:28;;;;;;;;;;;6.00;1.00;;;;;;5040961;28;19935;-80
2022/01/09 08:30:54;;;;;;;;;;;6.20;1.00;;;;;;5040655;28;19925;-81
2022/01/09 08:33:24;;;;;;;;;;;6.40;99.90;;;;;;5040587;28;20019;-80
2022/01/09 08:35:49;;;;;;;;;;;6.70;1.00;;;;;;5056871;28;19913;-80
2022/01/09 08:38:15;;;;;;;;;;;6.70;8.20;;;;;;5057916;28;19970;-81
2022/01/09 08:40:40;;;;;;;;;;;6.80;99.90;;;;;;5037455;28;19924;-80
2022/01/09 08:43:06;;;;;;;;;;;6.90;99.90;;;;;;5037448;28;19924;-80
2022/01/09 08:45:31;;;;;;;;;;;7.10;1.00;;;;;;5039290;28;19938;-80
2022/01/09 08:47:56;;;;;;;;;;;7.30;1.00;;;;;;5056232;28;19913;-80
2022/01/09 08:50:23;;;;;;;;;;;7.40;99.90;;;;;;5056665;28;19920;-80
2022/01/09 08:52:48;;;;;;;;;;;7.40;99.90;;;;;;5055058;28;19919;-81
2022/01/09 08:55:14;;;;;;;;;;;7.40;1.00;;;;;;5056361;28;19921;-82
2022/01/09 08:57:40;;;;;;;;;;;7.40;1.00;;;;;;5058789;28;19992;-80
2022/01/09 09:00:05;;;;;;;;;;;7.30;99.90;;;;;;5055007;28;19916;-81
2022/01/09 09:02:31;;;;;;;;;;;7.30;99.90;;;;;;5039669;28;19966;-80
2022/01/09 09:04:56;;;;;;;;;;;7.20;99.90;;;;;;5058147;28;19936;-81
2022/01/09 09:07:24;;;;;;;;;;;7.20;99.90;;;;;;5058788;28;19924;-80
2022/01/09 09:09:50;;;;;;;;;;;7.10;99.90;;;;;;5037661;28;20015;-80
2022/01/09 09:12:16;;;;;;;;;;;7.00;99.90;;;;;;5037630;28;19913;-80
2022/01/09 09:14:42;;;;;;;;;;;6.80;1.00;;;;;;5056915;28;19912;-80
2022/01/09 09:17:07;;;;;;;;;;;6.80;1.00;;;;;;5058467;28;20297;-80
2022/01/09 09:19:32;;;;;;;;;;;6.80;1.00;;;;;;5054544;28;19959;-80
2022/01/09 09:21:58;;;;;;;;;;;6.80;64.20;;;;;;5037048;28;19908;-79
2022/01/09 09:24:23;;;;;;;;;;;6.80;99.90;;;;;;5056319;28;19909;-80
2022/01/09 09:26:49;;;;;;;;;;;6.90;99.90;;;;;;5031304;28;19920;-79
2022/01/09 09:29:14;;;;;;;;;;;6.90;47.60;;;;;;5056711;28;19945;-80
2022/01/09 09:31:40;;;;;;;;;;;7.00;52.10;;;;;;5060650;28;20388;-79
2022/01/09 09:34:08;;;;;;;;;;;6.90;1.00;;;;;;5057796;28;19935;-81
2022/01/09 09:36:35;;;;;;;;;;;7.00;1.00;;;;;;5041081;28;19913;-79
2022/01/09 09:39:00;;;;;;;;;;;7.10;1.00;;;;;;5055124;28;19924;-80
2022/01/09 09:41:26;;;;;;;;;;;7.30;1.00;;;;;;5059392;28;19917;-79
2022/01/09 09:43:52;;;;;;;;;;;7.40;99.90;;;;;;5057100;28;19927;-79
2022/01/09 09:46:23;;;;;;;;;;;7.40;99.90;;;;;;5037704;28;19913;-80
2022/01/09 09:48:50;;;;;;;;;;;7.50;99.90;;;;;;5041622;28;19917;-80
2022/01/09 09:51:15;;;;;;;;;;;7.70;99.90;;;;;;5060497;28;19920;-79
2022/01/09 09:53:41;;;;;;;;;;;8.00;1.00;;;;;;5040291;28;19913;-80
2022/01/09 09:56:07;;;;;;;;;;;8.20;1.00;;;;;;5041349;28;19948;-79
2022/01/09 09:58:32;;;;;;;;;;;8.10;99.90;;;;;;5057695;28;19975;-79
2022/01/09 10:00:57;;;;;;;;;;;7.90;99.90;;;;;;5055686;28;20003;-79
2022/01/09 10:03:27;;;;;;;;;;;7.70;99.90;;;;;;5039149;28;20324;-79
2022/01/09 10:05:52;;;;;;;;;;;7.50;99.90;;;;;;5055548;28;19917;-79
2022/01/09 10:08:19;;;;;;;;;;;7.40;1.00;;;;;;5057179;28;19924;-78
2022/01/09 10:10:45;;;;;;;;;;;7.20;1.00;;;;;;5058648;28;19912;-79
2022/01/09 10:13:11;;;;;;;;;;;7.20;1.00;;;;;;5059278;28;20010;-79
2022/01/09 10:15:45;;;;;;;;;;;7.30;1.00;;;;;;5059197;28;20400;-78
2022/01/09 10:18:10;;;;;;;;;;;7.30;1.00;;;;;;5055894;28;20012;-79
2022/01/09 10:20:35;;;;;;;;;;;7.40;1.00;;;;;;5059006;28;19944;-79
2022/01/09 10:23:01;;;;;;;;;;;7.30;1.00;;;;;;5044057;28;20362;-79
2022/01/09 10:25:26;;;;;;;;;;;7.10;1.00;;;;;;5042174;28;19909;-79
2022/01/09 10:28:14;;;;;;;;;;;7.10;93.60;;;;;;5040933;28;19920;-79
2022/01/09 10:30:41;;;;;;;;;;;7.20;99.90;;;;;;5041205;28;20373;-79
2022/01/09 10:33:08;;;;;;;;;;;7.10;99.90;;;;;;5057004;28;20348;-79
2022/01/09 10:35:34;;;;;;;;;;;7.10;99.90;;;;;;5054761;28;19913;-79
2022/01/09 10:38:07;;;;;;;;;;;6.90;99.90;;;;;;5058329;28;19923;-79
2022/01/09 10:40:34;;;;;;;;;;;7.00;99.90;;;;;;5037405;28;20014;-79
2022/01/09 10:43:02;;;;;;;;;;;7.20;99.90;;;;;;5036841;28;19917;-78
2022/01/09 10:45:28;;;;;;;;;;;7.30;99.90;;;;;;5058397;28;19917;-79
2022/01/09 10:48:00;;;;;;;;;;;7.20;99.90;;;;;;5055233;28;19908;-78
2022/01/09 10:50:28;;;;;;;;;;;7.10;99.90;;;;;;5039330;28;19912;-79
2022/01/09 10:53:12;;;;;;;;;;;7.00;99.90;;;;;;5055828;28;19916;-79
2022/01/09 10:55:38;;;;;;;;;;;7.00;99.90;;;;;;5057418;28;19917;-79
2022/01/09 10:58:16;;;;;;;;;;;7.10;99.90;;;;;;5057376;28;19916;-80
2022/01/09 11:00:42;;;;;;;;;;;7.20;1.00;;;;;;5052529;28;19923;-79
2022/01/09 11:03:07;;;;;;;;;;;7.30;99.90;;;;;;5033854;28;19913;-79
2022/01/09 11:05:35;;;;;;;;;;;7.30;99.90;;;;;;5051016;28;19940;-80
2022/01/09 11:08:01;;;;;;;;;;;7.20;99.90;;;;;;5032698;28;19975;-79
2022/01/09 11:10:28;;;;;;;;;;;7.10;68.40;;;;;;5038028;28;19924;-78
2022/01/09 11:12:58;;;;;;;;;;;7.10;73.80;;;;;;5036734;28;20435;-79
2022/01/09 11:15:24;;;;;;;;;;;7.20;99.90;;;;;;5057763;28;20280;-79
2022/01/09 11:17:50;;;;;;;;;;;7.20;56.30;;;;;;5040537;28;19972;-79
2022/01/09 11:20:17;;;;;;;;;;;7.20;94.20;;;;;;5058051;28;20302;-80
2022/01/09 11:22:43;;;;;;;;;;;7.10;99.90;;;;;;5057245;28;19966;-80
2022/01/09 11:25:11;;;;;;;;;;;7.10;99.90;;;;;;5058370;28;19912;-79
2022/01/09 11:27:37;;;;;;;;;;;7.20;99.90;;;;;;5057758;28;19909;-79
2022/01/09 11:30:03;;;;;;;;;;;7.30;99.90;;;;;;5039765;28;19913;-80
2022/01/09 11:32:41;;;;;;;;;;;7.40;99.90;;;;;;5057712;28;19963;-79
2022/01/09 11:35:19;;;;;;;;;;;7.40;99.90;;;;;;5039252;28;19970;-79
2022/01/09 11:38:13;;;;;;;;;;;7.60;99.90;;;;;;5058485;28;19934;-80
2022/01/09 11:40:39;;;;;;;;;;;7.90;1.00;;;;;;5048418;28;19921;-80
2022/01/09 11:43:11;;;;;;;;;;;8.20;1.00;;;;;;5038269;28;19932;-79
2022/01/09 11:45:43;;;;;;;;;;;8.30;1.00;;;;;;5038363;28;19921;-79
2022/01/09 11:48:08;;;;;;;;;;;8.30;99.90;;;;;;5038895;28;19909;-80
2022/01/09 11:50:35;;;;;;;;;;;8.20;99.90;;;;;;5039821;28;19919;-79
2022/01/09 11:53:01;;;;;;;;;;;8.10;99.90;;;;;;5056229;28;19912;-79
2022/01/09 11:55:34;;;;;;;;;;;8.00;99.90;;;;;;5038638;28;19916;-79
2022/01/09 11:58:02;;;;;;;;;;;7.80;99.90;;;;;;5057020;28;20012;-79
2022/01/09 12:00:34;;;;;;;;;;;7.80;99.90;;;;;;5038126;28;19916;-79
2022/01/09 12:03:00;;;;;;;;;;;7.70;99.90;;;;;;5056961;28;19908;-79
2022/01/09 12:05:26;;;;;;;;;;;7.70;99.90;;;;;;5038561;28;20003;-79
2022/01/09 12:07:51;;;;;;;;;;;7.70;99.90;;;;;;5035645;28;20014;-79
2022/01/09 12:10:16;;;;;;;;;;;7.70;99.90;;;;;;5037151;28;19940;-79
2022/01/09 12:12:42;;;;;;;;;;;7.60;99.90;;;;;;5052155;28;19909;-79
2022/01/09 12:15:08;;;;;;;;;;;7.50;99.90;;;;;;5044292;28;19963;-79
2022/01/09 12:17:36;;;;;;;;;;;7.40;99.90;;;;;;5057158;28;19974;-79
2022/01/09 12:20:14;;;;;;;;;;;7.30;1.00;;;;;;5038158;28;19999;-79
2022/01/09 12:25:22;;;;;;;;;;;7.20;1.00;;;;;;5057064;28;19920;-79
2022/01/09 12:27:51;;;;;;;;;;;7.10;1.00;;;;;;5056099;28;19921;-79
2022/01/09 12:30:36;;;;;;;;;;;7.30;1.00;;;;;;5055939;28;20296;-79
2022/01/09 12:33:05;;;;;;;;;;;7.60;1.00;;;;;;5053636;28;19913;-79
2022/01/09 12:35:31;;;;;;;;;;;7.80;99.90;;;;;;5038357;28;19916;-79
2022/01/09 12:38:00;;;;;;;;;;;8.10;99.90;;;;;;5037520;28;19913;-79
2022/01/09 12:40:26;;;;;;;;;;;8.30;97.10;;;;;;5038318;28;19913;-80
2022/01/09 12:42:52;;;;;;;;;;;8.40;1.00;;;;;;5056217;28;19921;-79
2022/01/09 12:45:18;;;;;;;;;;;8.40;1.00;;;;;;5056360;28;19936;-80
2022/01/09 12:47:43;;;;;;;;;;;8.50;1.00;;;;;;5054569;28;19913;-79
2022/01/09 12:50:09;;;;;;;;;;;8.70;1.00;;;;;;5057748;28;19909;-80
2022/01/09 12:52:34;;;;;;;;;;;8.80;99.90;;;;;;5056581;28;20388;-79
2022/01/09 12:55:07;;;;;;;;;;;8.80;99.90;;;;;;5055716;28;20021;-79
2022/01/09 12:57:48;;;;;;;;;;;8.80;99.90;;;;;;5037675;28;19913;-79
2022/01/09 13:00:14;;;;;;;;;;;8.80;99.90;;;;;;5056021;28;19913;-79
2022/01/09 13:02:40;;;;;;;;;;;8.70;99.90;;;;;;5053913;28;19920;-79
2022/01/09 13:05:05;;;;;;;;;;;8.50;99.90;;;;;;5055216;28;20473;-79
2022/01/09 13:07:31;;;;;;;;;;;8.50;99.90;;;;;;5055337;28;19948;-78
2022/01/09 13:09:56;;;;;;;;;;;8.50;99.90;;;;;;5055672;28;19909;-79
2022/01/09 13:12:23;;;;;;;;;;;8.30;99.90;;;;;;5037308;28;19913;-79
2022/01/09 13:14:48;;;;;;;;;;;8.10;99.90;;;;;;5038775;28;19915;-80
2022/01/09 13:17:16;;;;;;;;;;;7.90;99.90;;;;;;5037918;28;20394;-80
2022/01/09 13:19:41;;;;;;;;;;;7.90;99.90;;;;;;5038531;28;20373;-79
2022/01/09 13:22:09;;;;;;;;;;;7.80;99.90;;;;;;5038515;28;19920;-80
2022/01/09 13:24:34;;;;;;;;;;;8.00;99.90;;;;;;5038586;28;19991;-80
2022/01/09 13:27:04;;;;;;;;;;;8.30;99.90;;;;;;5056790;28;19944;-80
2022/01/09 13:29:33;;;;;;;;;;;8.50;99.90;;;;;;5056966;28;19954;-80
2022/01/09 13:32:00;;;;;;;;;;;8.70;99.90;;;;;;5057788;28;20359;-80
2022/01/09 13:34:38;;;;;;;;;;;8.90;99.90;;;;;;5039431;28;19909;-80
2022/01/09 13:37:08;;;;;;;;;;;9.00;99.90;;;;;;5051937;28;20515;-80
2022/01/09 13:39:35;;;;;;;;;;;9.10;99.90;;;;;;5037851;28;19913;-80
2022/01/09 13:42:03;;;;;;;;;;;9.10;25.40;;;;;;5037321;28;19921;-79
2022/01/09 13:44:28;;;;;;;;;;;9.20;20.00;;;;;;5056929;28;19916;-80
2022/01/09 13:47:12;;;;;;;;;;;9.10;10.20;;;;;;5056591;28;20000;-80
2022/01/09 13:49:47;;;;;;;;;;;8.90;1.00;;;;;;5038872;28;19921;-80
2022/01/09 13:52:17;;;;;;;;;;;8.70;1.00;;;;;;5038856;28;19916;-80
2022/01/09 13:54:43;;;;;;;;;;;8.60;1.00;;;;;;5037598;28;20050;-79
2022/01/09 13:57:13;;;;;;;;;;;8.50;8.20;;;;;;5056439;28;19909;-80
2022/01/09 13:59:46;;;;;;;;;;;8.40;11.80;;;;;;5056524;28;19978;-80
2022/01/09 14:02:15;;;;;;;;;;;8.50;17.00;;;;;;5038176;28;19913;-79
2022/01/09 14:04:41;;;;;;;;;;;8.60;29.10;;;;;;5053713;28;19932;-80
2022/01/09 14:07:17;;;;;;;;;;;8.60;6.70;;;;;;5038027;28;19939;-79
2022/01/09 14:09:44;;;;;;;;;;;8.50;1.00;;;;;;5055931;28;19952;-80
2022/01/09 14:12:14;;;;;;;;;;;8.50;4.70;;;;;;5055806;28;20272;-80
2022/01/09 14:14:42;;;;;;;;;;;8.40;1.70;;;;;;5056773;28;19963;-80
2022/01/09 14:17:26;;;;;;;;;;;8.30;5.00;;;;;;5060653;28;19932;-80
2022/01/09 14:19:52;;;;;;;;;;;8.40;7.30;;;;;;5057641;28;19966;-79
2022/01/09 14:22:18;;;;;;;;;;;8.70;1.00;;;;;;5054718;28;20007;-80
2022/01/09 14:25:04;;;;;;;;;;;9.00;1.00;;;;;;5059890;28;19909;-80
2022/01/09 14:27:34;;;;;;;;;;;9.30;1.00;;;;;;5040843;28;19909;-80
2022/01/09 14:30:00;;;;;;;;;;;9.70;1.00;;;;;;5039875;28;20349;-79
2022/01/09 14:32:26;;;;;;;;;;;9.90;1.00;;;;;;5059601;28;19919;-80
2022/01/09 14:34:52;;;;;;;;;;;9.80;1.00;;;;;;5059323;28;20305;-80
2022/01/09 14:37:18;;;;;;;;;;;9.50;1.00;;;;;;5058966;28;19912;-80
2022/01/09 14:39:43;;;;;;;;;;;9.20;1.00;;;;;;5059493;28;19912;-79
2022/01/09 14:42:09;;;;;;;;;;;8.90;1.00;;;;;;5058886;28;19913;-79
2022/01/09 14:44:35;;;;;;;;;;;8.60;1.00;;;;;;5058975;28;19908;-80
2022/01/09 14:47:01;;;;;;;;;;;8.40;1.00;;;;;;5059113;28;19963;-80